Terminal Aerodrome Forecast
Issued by NWS Bismarck, ND

Home | Current Version | Previous Version | Text Only | Print | Product List | Glossary Off
Versions: 1 2 3 4 5 6 7 8 9 10 11 12 13 14

000
FTUS43 KBIS 280500
TAFBIS
TAF
KBIS 280528Z 2806/2906 05004KT P6SM FEW060
     FM281500 36006KT P6SM SCT035 SCT050
     FM290100 06004KT P6SM SKC=

USA.gov is the U.S. government's official web portal to all federal, state and local government web resources and services.